Time;durP1;ratioP1;P1;durP2;ratioP2;P2;SDS_P1;SDS_P2;PMS_P1;PMS_P2;Temp;Humidity;BMP_temperature;BMP_pressure;BME280_temperature;BME280_humidity;BME280_pressure;Samples;Min_cycle;Max_cycle;Signal;HPM_P1;HPM_P2
2022/05/05 00:00:47;;;;;;;8.30;4.20;;;;;;;15.73;60.98;99993.50;5093511;28;20025;-46
2022/05/05 00:03:12;;;;;;;5.63;4.10;;;;;;;15.63;61.89;99999.41;5110839;28;20049;-46
2022/05/05 00:05:38;;;;;;;5.15;4.18;;;;;;;15.54;62.27;99993.56;5113276;28;20044;-48
2022/05/05 00:08:03;;;;;;;7.65;4.30;;;;;;;15.59;62.45;100004.44;5113492;28;20019;-46
2022/05/05 00:15:57;;;;;;;6.03;4.45;;;;;;;15.41;64.39;100001.81;5113924;28;20500;-48
2022/05/05 00:18:22;;;;;;;9.45;4.90;;;;;;;15.63;63.94;100010.97;5113455;28;20056;-47
2022/05/05 00:20:48;;;;;;;9.48;5.03;;;;;;;15.61;64.14;100006.84;5113367;28;20030;-46
2022/05/05 00:23:13;;;;;;;11.23;5.25;;;;;;;15.66;64.06;100007.00;5113130;28;20088;-46
2022/05/05 00:25:39;;;;;;;7.28;4.95;;;;;;;15.72;63.43;99999.88;5113397;28;20490;-48
2022/05/05 00:28:04;;;;;;;10.85;5.75;;;;;;;15.63;63.93;100002.91;5113185;28;20019;-47
2022/05/05 00:30:30;;;;;;;8.35;5.05;;;;;;;15.58;64.67;100002.78;5113083;28;20044;-46
2022/05/05 00:32:55;;;;;;;8.00;5.07;;;;;;;15.66;64.46;99998.13;5112816;28;20044;-47
2022/05/05 00:35:20;;;;;;;10.23;5.82;;;;;;;15.57;64.83;100003.84;5113031;28;20030;-46
2022/05/05 00:37:46;;;;;;;9.05;5.97;;;;;;;15.60;65.00;100005.25;5112684;28;20022;-47
2022/05/05 00:40:12;;;;;;;6.95;5.72;;;;;;;15.49;64.70;100003.34;5113106;28;20015;-49
2022/05/05 00:42:38;;;;;;;9.15;6.38;;;;;;;15.48;65.02;99996.34;5112763;28;20016;-46
2022/05/05 00:45:04;;;;;;;9.55;6.32;;;;;;;15.35;65.62;100005.41;5113033;28;20034;-47
2022/05/05 00:47:29;;;;;;;8.43;6.40;;;;;;;15.35;66.05;100003.53;5113117;28;20023;-47
2022/05/05 00:49:59;;;;;;;9.88;6.00;;;;;;;15.35;66.16;100002.72;5113146;28;20482;-51
2022/05/05 00:52:25;;;;;;;7.57;5.82;;;;;;;15.33;66.80;99999.47;5112897;28;20176;-50
2022/05/05 00:54:50;;;;;;;8.40;6.07;;;;;;;15.55;65.69;99997.06;5111885;28;20026;-46
2022/05/05 00:57:17;;;;;;;7.68;5.95;;;;;;;15.54;65.67;99996.25;5112851;28;20024;-46
2022/05/05 00:59:43;;;;;;;9.98;6.10;;;;;;;15.63;64.97;100002.91;5111963;28;20603;-46
2022/05/05 01:02:09;;;;;;;10.18;6.20;;;;;;;15.70;65.52;100008.16;5112566;28;20501;-47
2022/05/05 01:04:37;;;;;;;9.65;6.32;;;;;;;15.57;65.18;100006.53;5112688;28;20031;-50
2022/05/05 01:07:03;;;;;;;8.60;6.18;;;;;;;15.57;64.78;100001.16;5112478;28;20098;-47
2022/05/05 01:09:29;;;;;;;8.68;6.28;;;;;;;15.48;65.20;99996.34;5112657;28;20533;-47
2022/05/05 01:11:55;;;;;;;10.65;5.78;;;;;;;15.22;65.37;99996.50;5112502;28;20027;-47
2022/05/05 01:14:20;;;;;;;12.48;8.55;;;;;;;15.21;65.88;99994.03;5112180;28;20098;-48
2022/05/05 01:16:46;;;;;;;12.27;7.95;;;;;;;15.10;66.57;99990.28;5112659;28;20542;-48
2022/05/05 01:19:11;;;;;;;7.78;6.03;;;;;;;15.12;66.06;99990.06;5112554;28;20046;-47
2022/05/05 01:21:37;;;;;;;11.13;6.18;;;;;;;15.12;65.81;99992.75;5112230;28;20023;-48
2022/05/05 01:24:02;;;;;;;11.45;5.88;;;;;;;15.12;66.38;99993.56;5112125;28;20157;-50
2022/05/05 01:29:13;;;;;;;11.13;5.22;;;;;;;14.97;65.86;100006.53;5111818;28;20077;-48
2022/05/05 01:31:39;;;;;;;5.88;5.03;;;;;;;14.96;65.00;100016.41;5111904;28;20019;-47
2022/05/05 01:34:05;;;;;;;6.70;4.90;;;;;;;15.07;65.37;100012.16;5112260;28;20019;-47
2022/05/05 01:36:31;;;;;;;8.82;5.20;;;;;;;15.20;64.48;100012.00;5112081;28;20058;-47
2022/05/05 01:38:56;;;;;;;5.70;4.40;;;;;;;15.31;63.45;100009.59;5112041;28;20054;-51
2022/05/05 01:41:21;;;;;;;5.78;4.20;;;;;;;15.21;63.62;100013.63;5111987;28;20517;-48
2022/05/05 01:43:47;;;;;;;5.72;4.00;;;;;;;15.17;63.47;100009.78;5112062;28;20383;-49
2022/05/05 01:46:16;;;;;;;4.97;4.18;;;;;;;15.23;62.62;100013.38;5111986;28;20434;-47
2022/05/05 01:48:42;;;;;;;6.00;3.90;;;;;;;15.15;63.15;100003.81;5110821;28;20053;-48
2022/05/05 01:51:07;;;;;;;5.70;3.95;;;;;;;15.04;63.46;100018.81;5111761;28;20031;-47
2022/05/05 01:53:36;;;;;;;5.55;4.30;;;;;;;15.09;63.53;100015.44;5111486;28;20140;-47
2022/05/05 01:56:06;;;;;;;7.07;3.93;;;;;;;15.07;63.56;100017.53;5111718;28;20437;-49
2022/05/05 01:58:31;;;;;;;5.60;3.85;;;;;;;14.93;64.21;100016.09;5111613;28;20081;-48
2022/05/05 02:00:57;;;;;;;5.20;3.90;;;;;;;14.82;64.64;100018.44;5111735;28;20035;-47
2022/05/05 02:03:23;;;;;;;5.18;3.60;;;;;;;14.76;64.54;100021.22;5111416;28;20084;-48
2022/05/05 02:05:49;;;;;;;4.72;3.60;;;;;;;14.76;64.16;100018.53;5111722;28;20055;-47
2022/05/05 02:08:14;;;;;;;4.05;3.65;;;;;;;14.84;63.73;100018.22;5111387;28;20016;-47
2022/05/05 02:10:40;;;;;;;4.53;3.83;;;;;;;14.81;63.84;100018.66;5111564;28;20066;-49
2022/05/05 02:13:06;;;;;;;4.63;3.58;;;;;;;14.62;64.96;100023.22;5111005;28;20028;-47
2022/05/05 02:15:34;;;;;;;9.77;3.67;;;;;;;14.59;64.97;100018.31;5111520;28;20028;-47
2022/05/05 02:18:09;;;;;;;5.38;3.47;;;;;;;14.74;64.33;100023.31;5111337;28;20027;-48
2022/05/05 02:20:35;;;;;;;5.72;3.90;;;;;;;14.64;67.99;100023.81;5111004;28;20103;-48
2022/05/05 02:23:00;;;;;;;6.80;3.67;;;;;;;14.83;64.41;100030.81;5092364;28;20106;-49
2022/05/05 02:25:26;;;;;;;5.88;3.67;;;;;;;14.86;64.13;100041.06;5111420;28;20030;-50
2022/05/05 02:27:53;;;;;;;4.97;3.88;;;;;;;14.94;64.02;100033.78;5111373;28;20027;-49
2022/05/05 02:30:21;;;;;;;4.22;3.67;;;;;;;14.97;63.91;100039.50;5111182;28;20467;-48
2022/05/05 02:32:47;;;;;;;4.97;4.20;;;;;;;14.93;63.38;100042.88;5111438;28;20034;-48
2022/05/05 02:35:13;;;;;;;5.55;4.13;;;;;;;14.77;63.08;100031.69;5110861;28;20024;-47
2022/05/05 02:40:23;;;;;;;4.85;3.95;;;;;;;14.66;62.79;100054.72;5110679;28;20039;-48
2022/05/05 02:42:49;;;;;;;4.88;4.22;;;;;;;14.55;63.95;100046.56;5110450;28;20012;-47
2022/05/05 02:45:14;;;;;;;4.68;3.85;;;;;;;14.45;63.87;100049.75;5110661;28;20028;-47
2022/05/05 02:47:40;;;;;;;5.80;4.30;;;;;;;14.42;63.54;100051.00;5110313;28;20024;-45
2022/05/05 02:50:05;;;;;;;5.07;3.92;;;;;;;14.26;64.29;100064.97;5110312;28;20020;-46
2022/05/05 02:52:31;;;;;;;5.30;4.10;;;;;;;13.97;64.56;100032.47;5110300;28;20032;-46
2022/05/05 02:54:56;;;;;;;8.38;4.45;;;;;;;14.16;64.59;100068.13;5110905;28;20031;-46
2022/05/05 02:57:23;;;;;;;8.13;4.20;;;;;;;13.99;65.37;100069.69;5110815;28;20070;-46
2022/05/05 02:59:55;;;;;;;5.53;4.30;;;;;;;13.90;65.76;100066.50;5112428;28;20519;-47
2022/05/05 03:02:21;;;;;;;5.10;4.40;;;;;;;13.97;65.37;100071.78;5114980;28;20062;-38
2022/05/05 03:04:47;;;;;;;8.00;6.10;;;;;;;13.87;65.53;100069.59;5114305;28;20043;-37
2022/05/05 03:07:13;;;;;;;48.53;30.42;;;;;;;14.05;64.83;100083.03;5114684;28;20055;-37
2022/05/05 03:09:40;;;;;;;154.82;86.78;;;;;;;13.83;65.83;100076.41;5114441;28;20023;-37
2022/05/05 03:12:07;;;;;;;12.98;8.75;;;;;;;13.72;65.61;100048.50;5113791;28;20031;-37
2022/05/05 03:14:32;;;;;;;18.45;11.43;;;;;;;13.60;66.74;100082.31;5114080;28;20027;-37
2022/05/05 03:16:58;;;;;;;8.35;5.20;;;;;;;13.36;67.23;100089.22;5114146;28;20027;-37
2022/05/05 03:19:24;;;;;;;6.32;4.43;;;;;;;13.66;66.77;100087.63;5113724;28;20054;-37
2022/05/05 03:21:49;;;;;;;6.72;4.50;;;;;;;13.62;66.86;100086.41;5113923;28;20116;-38
2022/05/05 03:24:15;;;;;;;5.80;4.30;;;;;;;13.83;65.83;100089.78;5113843;28;20031;-38
2022/05/05 03:26:40;;;;;;;6.88;4.38;;;;;;;13.92;67.01;100093.84;5113718;28;20136;-38
2022/05/05 03:29:06;;;;;;;9.00;4.63;;;;;;;14.02;70.51;100096.84;5095290;28;20059;-38
2022/05/05 03:31:32;;;;;;;5.82;4.13;;;;;;;14.52;73.64;100100.56;5113740;28;20036;-37
2022/05/05 03:33:58;;;;;;;7.20;4.88;;;;;;;15.07;72.07;100097.94;5114233;28;20028;-37
2022/05/05 03:36:23;;;;;;;7.85;5.03;;;;;;;15.36;69.10;100101.69;5113937;28;20509;-37
2022/05/05 03:38:54;;;;;;;6.70;3.90;;;;;;;15.75;67.55;100102.22;5114450;28;20213;-38
2022/05/05 03:41:19;;;;;;;6.05;4.05;;;;;;;15.95;65.81;100101.91;5114142;28;20052;-38
2022/05/05 03:43:45;;;;;;;7.05;4.10;;;;;;;16.28;61.50;100103.28;5113633;28;20058;-37
2022/05/05 03:46:10;;;;;;;7.43;4.00;;;;;;;16.38;60.56;100103.50;5113910;28;20134;-38
2022/05/05 03:48:36;;;;;;;6.85;4.05;;;;;;;16.32;59.37;100101.75;5113573;28;20035;-38
2022/05/05 03:51:01;;;;;;;9.00;6.22;;;;;;;15.73;60.41;100106.19;5113339;28;20084;-38
2022/05/05 03:53:27;;;;;;;8.35;5.25;;;;;;;15.76;60.20;100103.88;5112207;28;20036;-38
2022/05/05 03:55:52;;;;;;;8.90;5.32;;;;;;;15.87;60.12;100107.63;5112348;28;20048;-38
2022/05/05 03:58:18;;;;;;;6.50;4.43;;;;;;;15.87;60.40;100115.69;5111522;28;20459;-38
2022/05/05 04:00:43;;;;;;;4.25;3.70;;;;;;;16.06;59.01;100118.31;5111963;28;20073;-37
2022/05/05 04:05:52;;;;;;;4.68;3.70;;;;;;;16.42;58.01;100114.59;5111688;28;20093;-38
2022/05/05 04:08:18;;;;;;;4.35;3.65;;;;;;;16.71;57.18;100115.53;5112161;28;20063;-38
2022/05/05 04:10:43;;;;;;;4.80;3.72;;;;;;;17.08;56.24;100120.66;5092448;28;20035;-38
2022/05/05 04:13:09;;;;;;;6.63;3.97;;;;;;;17.16;55.98;100111.41;5110856;28;20030;-38
2022/05/05 04:15:34;;;;;;;5.05;3.78;;;;;;;17.44;54.98;100120.56;5110729;28;20028;-39
2022/05/05 04:18:00;;;;;;;11.95;7.78;;;;;;;17.71;54.94;100129.69;5110536;28;20028;-37
2022/05/05 04:20:26;;;;;;;18.67;13.18;;;;;;;18.13;54.00;100134.75;5110788;28;20050;-38
2022/05/05 04:22:52;;;;;;;23.02;17.63;;;;;;;18.25;53.49;100136.56;5111032;28;20463;-38
2022/05/05 04:25:18;;;;;;;24.50;17.10;;;;;;;18.40;53.02;100144.09;5111166;28;20020;-38
2022/05/05 04:27:45;;;;;;;8.55;5.80;;;;;;;18.74;51.39;100145.69;5112210;28;20023;-38
2022/05/05 04:30:16;;;;;;;7.07;3.88;;;;;;;18.98;50.90;100139.28;5111980;28;20337;-38
2022/05/05 04:32:41;;;;;;;13.55;9.27;;;;;;;18.83;50.45;100145.28;5111608;28;20137;-38
2022/05/05 04:35:07;;;;;;;6.40;4.30;;;;;;;18.76;50.14;100143.53;5111813;28;20457;-37
2022/05/05 04:37:32;;;;;;;4.50;3.47;;;;;;;18.97;49.47;100138.47;5111754;28;20054;-38
2022/05/05 04:39:58;;;;;;;4.97;3.17;;;;;;;19.38;49.14;100140.84;5111667;28;20121;-36
2022/05/05 04:42:25;;;;;;;3.88;3.10;;;;;;;19.63;48.33;100134.91;5111552;28;20021;-38
2022/05/05 04:44:51;;;;;;;7.88;3.20;;;;;;;20.09;46.54;100136.22;5111156;28;20035;-39
2022/05/05 04:47:17;;;;;;;9.23;6.43;;;;;;;20.13;46.09;100128.44;5111579;28;20019;-38
2022/05/05 04:49:42;;;;;;;5.95;4.13;;;;;;;19.79;46.91;100139.44;5111817;28;20022;-38
2022/05/05 04:52:08;;;;;;;4.95;3.70;;;;;;;20.05;46.39;100147.81;5111801;28;20027;-38
2022/05/05 04:54:33;;;;;;;4.45;3.17;;;;;;;20.40;45.52;100141.88;5111140;28;20512;-37
2022/05/05 04:56:58;;;;;;;6.55;3.20;;;;;;;20.46;45.10;100138.13;5111490;28;20023;-38
2022/05/05 04:59:24;;;;;;;6.50;3.80;;;;;;;20.49;45.45;100143.03;5111236;28;20503;-38
2022/05/05 05:01:49;;;;;;;7.22;4.47;;;;;;;20.88;44.73;100141.94;5111296;28;20015;-38
2022/05/05 05:04:15;;;;;;;7.10;5.07;;;;;;;21.28;43.67;100133.22;5105745;28;20023;-38
2022/05/05 05:06:40;;;;;;;6.10;3.67;;;;;;;21.48;43.79;100143.31;5093700;28;20044;-39
2022/05/05 05:09:05;;;;;;;5.05;3.25;;;;;;;21.65;43.00;100150.41;5103081;28;20347;-39
2022/05/05 05:11:31;;;;;;;12.77;7.68;;;;;;;21.86;42.91;100143.16;5110548;28;20502;-38
2022/05/05 05:13:56;;;;;;;86.95;55.65;;;;;;;21.84;42.66;100146.13;5102184;28;20012;-38
2022/05/05 05:16:22;;;;;;;12.93;6.60;;;;;;;21.63;43.43;100139.03;5111693;28;20015;-39
2022/05/05 05:18:47;;;;;;;8.55;3.72;;;;;;;21.37;43.21;100135.41;5111247;28;20108;-38
2022/05/05 05:21:13;;;;;;;7.05;3.63;;;;;;;22.14;42.90;100149.94;5110281;28;20529;-38
2022/05/05 05:23:38;;;;;;;9.02;3.60;;;;;;;21.98;42.03;100148.31;5109839;28;20036;-37
2022/05/05 05:26:04;;;;;;;9.75;4.00;;;;;;;22.52;41.97;100150.47;5109955;28;20038;-37
2022/05/05 05:28:29;;;;;;;7.82;4.00;;;;;;;23.08;41.28;100151.50;5110028;28;20107;-40
2022/05/05 05:30:55;;;;;;;5.85;3.60;;;;;;;23.68;39.58;100152.28;5110007;28;20015;-37
2022/05/05 05:33:20;;;;;;;7.75;4.05;;;;;;;23.70;39.42;100152.81;5109785;28;20364;-38
2022/05/05 05:35:46;;;;;;;7.25;4.10;;;;;;;23.46;39.28;100154.59;5110023;28;20012;-38
2022/05/05 05:38:13;;;;;;;8.25;4.20;;;;;;;24.06;38.42;100160.75;5109749;28;20038;-38
2022/05/05 05:40:39;;;;;;;7.25;4.10;;;;;;;24.78;37.84;100165.59;5110026;28;20051;-37
2022/05/05 05:43:04;;;;;;;11.20;4.60;;;;;;;24.61;37.78;100157.06;5109466;28;20431;-38
2022/05/05 05:45:30;;;;;;;6.68;4.32;;;;;;;24.47;37.88;100160.44;5109710;28;20016;-37
2022/05/05 05:47:55;;;;;;;12.90;4.60;;;;;;;24.44;37.58;100157.47;5109638;28;20015;-37
2022/05/05 05:50:21;;;;;;;8.70;4.75;;;;;;;25.09;36.95;100166.09;5107945;28;20023;-38
2022/05/05 05:52:48;;;;;;;8.43;4.43;;;;;;;25.75;35.96;100163.63;5110041;28;20050;-38
2022/05/05 05:55:14;;;;;;;5.43;3.97;;;;;;;26.38;34.76;100167.06;5110574;28;20027;-38
2022/05/05 05:57:39;;;;;;;7.00;4.53;;;;;;;26.38;34.18;100165.13;5110564;28;20023;-38
2022/05/05 06:00:05;;;;;;;14.35;4.40;;;;;;;26.81;34.01;100170.41;5110069;28;20018;-37
2022/05/05 06:05:15;;;;;;;6.70;3.80;;;;;;;27.21;32.83;100170.72;5107544;28;20046;-37
2022/05/05 06:07:40;;;;;;;26.98;17.80;;;;;;;27.65;32.31;100176.66;5109963;28;20019;-36
2022/05/05 06:10:06;;;;;;;14.02;7.93;;;;;;;27.76;31.76;100180.78;5110159;28;20019;-37
2022/05/05 06:12:31;;;;;;;7.80;3.75;;;;;;;27.59;31.71;100175.97;5109758;28;20027;-37
2022/05/05 06:14:57;;;;;;;6.63;3.03;;;;;;;27.03;32.29;100177.09;5110010;28;20432;-37
2022/05/05 06:17:22;;;;;;;4.40;3.03;;;;;;;27.72;31.90;100181.69;5109968;28;20030;-37
2022/05/05 06:19:48;;;;;;;10.25;3.17;;;;;;;27.85;31.70;100180.84;5110160;28;20019;-37
2022/05/05 06:22:13;;;;;;;6.18;3.30;;;;;;;28.04;31.13;100180.72;5109767;28;20016;-37
2022/05/05 06:24:38;;;;;;;4.30;2.83;;;;;;;28.25;31.01;100176.38;5109800;28;20064;-37
2022/05/05 06:27:04;;;;;;;4.35;3.05;;;;;;;28.58;30.59;100180.78;5109873;28;20097;-37
2022/05/05 06:29:30;;;;;;;6.15;3.40;;;;;;;29.00;29.95;100176.63;5109544;28;20055;-48
2022/05/05 06:31:56;;;;;;;7.90;3.22;;;;;;;29.22;29.70;100178.47;5109926;28;20027;-48
2022/05/05 06:34:21;;;;;;;4.75;3.50;;;;;;;29.44;29.55;100176.78;5110870;28;20096;-48
2022/05/05 06:36:47;;;;;;;5.93;3.17;;;;;;;29.73;28.79;100178.13;5114491;28;20024;-49
2022/05/05 06:39:12;;;;;;;4.70;3.50;;;;;;;30.02;28.36;100186.53;5100768;27;20032;-52
2022/05/05 06:41:38;;;;;;;3.30;3.00;;;;;;;30.31;28.16;100176.81;5093794;28;20051;-49
2022/05/05 06:44:03;;;;;;;14.77;3.92;;;;;;;30.10;28.21;100184.09;5093771;28;20413;-49
2022/05/05 06:46:30;;;;;;;4.43;2.90;;;;;;;30.24;27.77;100175.69;5093876;28;20526;-49
2022/05/05 06:48:55;;;;;;;4.43;3.15;;;;;;;30.36;28.36;100181.34;5094271;28;20024;-50
2022/05/05 06:51:20;;;;;;;4.93;3.10;;;;;;;30.34;27.60;100183.63;5093916;28;20085;-48
2022/05/05 06:53:46;;;;;;;6.00;3.40;;;;;;;30.14;28.43;100176.81;5093529;28;20030;-48
2022/05/05 06:56:12;;;;;;;8.10;3.47;;;;;;;29.95;28.54;100177.16;5094104;28;20050;-49
2022/05/05 06:58:37;;;;;;;7.30;3.40;;;;;;;30.24;28.20;100172.94;5100959;28;20443;-49
2022/05/05 07:03:47;;;;;;;7.93;3.38;;;;;;;29.78;28.49;100172.50;5093750;28;20031;-50
2022/05/05 07:06:12;;;;;;;8.70;3.58;;;;;;;29.75;28.85;100173.94;5093602;28;20055;-52
2022/05/05 07:11:22;;;;;;;9.48;6.30;;;;;;;30.49;28.24;100182.28;5094022;28;20066;-52
2022/05/05 07:13:48;;;;;;;7.05;3.83;;;;;;;30.66;27.44;100174.00;5093387;28;20034;-51
2022/05/05 07:16:14;;;;;;;6.93;3.30;;;;;;;30.78;27.62;100182.34;5094689;28;20032;-49
2022/05/05 07:18:39;;;;;;;6.88;3.50;;;;;;;30.82;27.12;100165.22;5113930;28;20574;-49
2022/05/05 07:21:05;;;;;;;4.70;2.90;;;;;;;31.29;27.23;100174.22;5113990;28;20024;-49
2022/05/05 07:23:31;;;;;;;6.25;3.65;;;;;;;31.43;26.92;100176.72;5113200;28;20034;-52
2022/05/05 07:25:56;;;;;;;5.22;3.28;;;;;;;31.03;27.24;100177.09;5113468;28;20120;-51
2022/05/05 07:28:21;;;;;;;7.10;3.15;;;;;;;30.94;26.56;100176.34;5108287;28;20024;-49
2022/05/05 07:30:47;;;;;;;6.38;2.90;;;;;;;30.56;26.79;100174.38;5102617;28;20028;-49
2022/05/05 07:33:12;;;;;;;5.13;2.80;;;;;;;31.03;26.93;100173.56;5106620;28;20031;-51
2022/05/05 07:35:38;;;;;;;3.22;2.65;;;;;;;31.34;26.59;100182.28;5106210;28;20479;-48
2022/05/05 07:38:05;;;;;;;7.10;3.05;;;;;;;30.66;27.37;100163.00;5113043;28;20019;-47
2022/05/05 07:40:30;;;;;;;7.13;2.90;;;;;;;31.40;25.66;100182.06;5113042;28;20016;-49
2022/05/05 07:42:56;;;;;;;3.90;3.08;;;;;;;31.38;25.32;100180.47;5111927;28;20414;-50
2022/05/05 07:45:21;;;;;;;10.68;2.80;;;;;;;31.09;26.14;100174.97;5110769;28;20188;-51
2022/05/05 07:47:47;;;;;;;3.95;2.40;;;;;;;30.87;26.38;100179.56;5110550;28;20024;-48
2022/05/05 07:50:12;;;;;;;5.10;2.63;;;;;;;30.35;26.86;100177.00;5111583;28;20042;-50
2022/05/05 07:52:38;;;;;;;6.07;2.90;;;;;;;29.49;27.91;100184.81;5111142;28;20023;-48
2022/05/05 07:55:04;;;;;;;6.93;2.97;;;;;;;30.04;27.18;100180.69;5110158;28;20023;-50
2022/05/05 07:57:30;;;;;;;5.90;3.50;;;;;;;30.22;26.44;100173.28;5110148;28;20069;-51
2022/05/05 07:59:56;;;;;;;8.27;2.80;;;;;;;30.23;27.61;100174.88;5109850;28;20031;-51
2022/05/05 08:02:22;;;;;;;8.70;3.20;;;;;;;30.02;27.47;100181.03;5109874;28;20282;-50
2022/05/05 08:04:47;;;;;;;5.80;2.80;;;;;;;30.57;27.07;100175.97;5109906;28;20471;-51
2022/05/05 08:07:13;;;;;;;7.38;3.17;;;;;;;31.46;26.25;100178.00;5109695;28;20047;-50
2022/05/05 08:09:38;;;;;;;6.68;3.15;;;;;;;31.11;25.55;100173.53;5111265;28;20027;-50
2022/05/05 08:12:06;;;;;;;6.63;3.30;;;;;;;30.64;25.98;100180.97;5111867;28;20031;-49
2022/05/05 08:14:32;;;;;;;10.75;3.20;;;;;;;30.83;25.40;100166.84;5112275;28;20023;-52
2022/05/05 08:16:57;;;;;;;5.43;2.90;;;;;;;31.20;25.27;100178.97;5111627;28;20024;-52
2022/05/05 08:19:23;;;;;;;4.93;2.78;;;;;;;30.37;25.24;100178.28;5111360;28;20059;-51
2022/05/05 08:21:49;;;;;;;9.13;3.05;;;;;;;29.60;26.50;100179.84;5111568;28;20100;-52
2022/05/05 08:29:43;;;;;;;7.80;2.80;;;;;;;29.46;27.90;100177.25;5111635;28;20030;-53
2022/05/05 08:32:09;;;;;;;5.88;2.83;;;;;;;30.16;26.55;100185.56;5111367;28;20031;-52
2022/05/05 08:34:35;;;;;;;5.20;2.55;;;;;;;30.38;25.67;100174.38;5111345;28;20031;-53
2022/05/05 08:37:03;;;;;;;4.72;2.70;;;;;;;31.30;25.28;100175.00;5111519;28;20028;-52
2022/05/05 08:39:28;;;;;;;4.22;2.55;;;;;;;30.81;25.44;100180.91;5111395;28;20083;-51
2022/05/05 08:41:54;;;;;;;7.63;2.80;;;;;;;30.14;26.82;100171.31;5110954;28;20031;-52
2022/05/05 08:44:20;;;;;;;7.85;2.60;;;;;;;30.47;25.73;100170.84;5110797;28;20133;-49
2022/05/05 08:46:53;;;;;;;7.15;2.60;;;;;;;30.59;25.45;100174.50;5111249;28;20399;-48
2022/05/05 08:49:22;;;;;;;5.03;2.83;;;;;;;30.38;26.07;100168.09;5111397;28;20022;-47
2022/05/05 08:51:53;;;;;;;3.38;2.50;;;;;;;29.36;28.59;100170.16;5110679;28;20076;-47
2022/05/05 08:54:22;;;;;;;4.95;2.80;;;;;;;29.79;27.25;100174.09;5111152;28;20016;-47
2022/05/05 08:56:49;;;;;;;4.68;2.60;;;;;;;30.01;25.44;100168.44;5110636;28;20052;-48
2022/05/05 08:59:16;;;;;;;4.85;2.40;;;;;;;29.62;25.57;100172.94;5110973;28;20031;-50
2022/05/05 09:01:41;;;;;;;6.88;2.67;;;;;;;29.10;26.83;100164.56;5110790;28;20498;-48
2022/05/05 09:04:08;;;;;;;5.07;2.63;;;;;;;29.35;25.84;100167.72;5110150;28;20019;-50
2022/05/05 09:06:46;;;;;;;5.07;2.53;;;;;;;29.95;26.05;100168.91;5110466;28;20208;-48
2022/05/05 09:09:34;;;;;;;3.58;2.40;;;;;;;29.69;25.55;100163.41;5109224;28;20068;-50
2022/05/05 09:12:06;;;;;;;6.10;2.72;;;;;;;30.71;25.62;100165.59;5099836;28;20442;-48
2022/05/05 09:14:36;;;;;;;3.17;2.25;;;;;;;31.28;25.18;100169.88;5106691;28;20020;-47
2022/05/05 09:17:06;;;;;;;5.90;2.45;;;;;;;31.53;24.51;100165.38;5111466;28;20019;-48
2022/05/05 09:19:37;;;;;;;5.10;2.20;;;;;;;32.44;23.55;100163.91;5111230;28;20548;-48
2022/05/05 09:22:04;;;;;;;3.80;2.30;;;;;;;32.61;23.02;100161.00;5111080;28;20088;-48
2022/05/05 09:24:35;;;;;;;5.20;2.50;;;;;;;32.63;22.26;100172.47;5111353;28;20377;-50
2022/05/05 09:27:17;;;;;;;4.53;2.72;;;;;;;32.62;22.95;100164.56;5111356;28;20035;-49
2022/05/05 09:29:57;;;;;;;4.40;2.53;;;;;;;32.50;23.33;100159.78;5110161;28;20027;-49
2022/05/05 09:32:44;;;;;;;7.05;2.55;;;;;;;32.15;22.44;100160.19;5108994;28;20030;-51
2022/05/05 09:35:13;;;;;;;6.40;2.28;;;;;;;31.63;22.39;100163.38;5109328;28;20024;-50
2022/05/05 09:37:49;;;;;;;3.92;2.08;;;;;;;29.65;23.29;100163.25;5109666;28;20042;-51
2022/05/05 09:40:18;;;;;;;6.30;2.70;;;;;;;28.35;25.72;100155.31;5109525;28;20046;-49
2022/05/05 09:42:44;;;;;;;;;;;;;;;29.85;24.96;100150.06;5109537;28;20502;-49
2022/05/05 09:45:24;;;;;;;4.50;2.40;;;;;;;29.70;25.75;100149.41;5110221;28;19907;-52
2022/05/05 09:47:54;;;;;;;3.42;2.40;;;;;;;29.62;24.16;100144.69;5110822;28;20080;-49
2022/05/05 09:50:22;;;;;;;3.97;2.20;;;;;;;29.47;23.74;100148.72;5110711;28;20034;-51
2022/05/05 09:58:22;;;;;;;4.32;1.90;;;;;;;28.90;24.77;100144.06;5111381;28;20081;-50
2022/05/05 10:00:58;;;;;;;6.10;2.17;;;;;;;28.65;25.48;100131.84;5111086;28;20023;-50
2022/05/05 10:06:32;;;;;;;4.45;2.30;;;;;;;28.30;25.47;100133.59;5110740;28;20063;-50
2022/05/05 10:09:23;;;;;;;;;;;;;;;28.47;24.60;100137.22;5109849;28;20059;-49
2022/05/05 10:11:49;;;;;;;4.72;2.30;;;;;;;28.50;24.01;100133.03;5105293;28;20338;-50
2022/05/05 10:14:16;;;;;;;3.42;2.28;;;;;;;27.73;25.53;100129.44;5110484;28;20226;-51
2022/05/05 10:16:42;;;;;;;4.13;2.53;;;;;;;27.85;25.49;100124.25;5110186;28;20027;-48
2022/05/05 10:19:09;;;;;;;3.95;2.80;;;;;;;28.50;25.04;100113.06;5109910;28;20016;-48
2022/05/05 10:22:03;;;;;;;4.80;2.65;;;;;;;29.59;24.14;100116.00;5110591;28;20119;-48
2022/05/05 10:24:34;;;;;;;3.85;2.58;;;;;;;30.19;23.49;100113.53;5110161;28;20020;-48
2022/05/05 10:27:01;;;;;;;8.13;2.50;;;;;;;30.90;23.95;100107.53;5110417;28;20392;-48
2022/05/05 10:29:42;;;;;;;4.38;2.40;;;;;;;30.56;23.25;100116.72;5110895;28;20020;-50
2022/05/05 10:32:11;;;;;;;2.88;2.20;;;;;;;30.65;23.11;100108.41;5110238;28;20050;-50
2022/05/05 10:34:45;;;;;;;2.92;2.40;;;;;;;30.47;23.03;100111.22;5110275;28;20031;-50
2022/05/05 10:37:12;;;;;;;4.75;2.35;;;;;;;30.38;22.70;100110.44;5110491;28;20092;-50
2022/05/05 10:40:11;;;;;;;3.50;2.40;;;;;;;29.48;23.93;100106.47;5110229;28;20443;-51
2022/05/05 10:42:44;;;;;;;3.78;2.70;;;;;;;28.91;25.44;100112.78;5077805;28;20035;-48
2022/05/05 10:45:13;;;;;;;4.20;2.42;;;;;;;28.63;25.22;100101.25;5110481;28;20063;-50
2022/05/05 10:48:06;;;;;;;3.08;2.38;;;;;;;29.13;23.82;100109.19;5110628;28;20024;-48
2022/05/05 10:50:54;;;;;;;5.70;2.60;;;;;;;28.83;24.25;100089.72;5110533;28;20027;-51
2022/05/05 10:53:27;;;;;;;2.92;2.42;;;;;;;29.36;23.43;100085.19;5110319;28;20023;-49
2022/05/05 10:55:52;;;;;;;3.70;2.20;;;;;;;29.39;24.48;100105.66;5110323;28;20023;-53
2022/05/05 10:58:57;;;;;;;4.97;2.63;;;;;;;29.50;23.90;100095.19;5110237;28;20510;-52
2022/05/05 11:01:24;;;;;;;3.08;2.40;;;;;;;29.31;24.19;100112.75;5007804;28;20096;-52
2022/05/05 11:04:04;;;;;;;5.72;2.40;;;;;;;29.35;24.26;100105.50;5092792;28;20047;-50
2022/05/05 11:06:32;;;;;;;4.07;2.30;;;;;;;28.82;24.94;100111.94;5110047;28;20083;-50
2022/05/05 11:08:58;;;;;;;5.97;2.47;;;;;;;28.12;25.45;100114.34;5110177;28;20084;-49
2022/05/05 11:11:42;;;;;;;5.65;2.58;;;;;;;28.00;26.65;100117.59;5102237;28;20035;-50
2022/05/05 11:22:58;;;;;;;6.15;2.50;;;;;;;27.94;26.29;100123.53;5114048;28;20108;-52
2022/05/05 11:25:24;;;;;;;5.03;2.53;;;;;;;27.92;26.98;100114.84;5114326;28;20077;-53
2022/05/05 11:27:56;;;;;;;4.47;2.30;;;;;;;28.10;26.63;100110.28;5113812;28;20043;-53
2022/05/05 11:30:22;;;;;;;3.25;2.30;;;;;;;28.97;25.50;100111.50;5113894;28;20035;-53
2022/05/05 11:32:48;;;;;;;5.10;2.33;;;;;;;29.34;25.41;100122.25;5112186;28;20455;-50
2022/05/05 11:35:21;;;;;;;4.10;2.70;;;;;;;28.64;25.39;100122.84;5111758;28;20407;-47
2022/05/05 11:37:46;;;;;;;6.57;2.50;;;;;;;28.63;26.01;100123.16;5111659;28;20027;-49
2022/05/05 11:40:13;;;;;;;5.28;2.47;;;;;;;27.61;25.91;100121.78;5111647;28;20034;-48
2022/05/05 11:45:28;;;;;;;5.23;2.30;;;;;;;27.63;26.02;100124.22;5112262;28;20034;-50
2022/05/05 11:47:54;;;;;;;4.93;2.25;;;;;;;28.45;24.93;100123.03;5112919;28;20273;-49
2022/05/05 11:50:20;;;;;;;3.65;2.55;;;;;;;28.32;25.11;100123.13;5113194;28;20510;-50
2022/05/05 11:52:46;;;;;;;3.10;2.70;;;;;;;28.65;24.13;100126.38;5112692;28;20027;-48
2022/05/05 11:55:13;;;;;;;5.10;2.55;;;;;;;28.44;25.27;100124.19;5113333;28;20096;-48
2022/05/05 11:57:40;;;;;;;6.75;2.22;;;;;;;28.81;24.55;100122.09;5113161;28;20061;-48
2022/05/05 12:02:51;;;;;;;8.65;2.42;;;;;;;27.65;25.54;100120.06;5112755;28;20042;-50
2022/05/05 12:05:18;;;;;;;3.20;2.90;;;;;;;27.20;26.31;100116.38;5113154;28;20027;-48
2022/05/05 12:07:46;;;;;;;3.60;2.30;;;;;;;27.83;24.77;100110.06;5113258;28;20035;-49
2022/05/05 12:10:14;;;;;;;2.85;2.38;;;;;;;27.69;25.96;100109.31;5113019;28;20106;-51
2022/05/05 12:12:44;;;;;;;2.92;2.47;;;;;;;28.21;25.75;100106.97;5112703;28;20127;-51
2022/05/05 12:15:11;;;;;;;2.65;2.28;;;;;;;27.66;24.79;100104.47;5094460;28;20544;-51